Time;durP1;ratioP1;P1;durP2;ratioP2;P2;SDS_P1;SDS_P2;PMS_P1;PMS_P2;Temp;Humidity;BMP_temperature;BMP_pressure;BME280_temperature;BME280_humidity;BME280_pressure;Samples;Min_cycle;Max_cycle;Signal;HPM_P1;HPM_P2
2021/08/11 00:01:48;;;;;;;9.70;5.32;;;;;;;;;;5007224;28;20137;-77
2021/08/11 00:04:18;;;;;;;10.68;5.25;;;;;;;;;;5002398;28;20531;-77
2021/08/11 00:06:46;;;;;;;8.88;4.70;;;;;;;;;;5001659;28;20042;-77
2021/08/11 00:09:14;;;;;;;10.77;5.95;;;;;;;;;;5008652;28;20100;-77
2021/08/11 00:11:45;;;;;;;8.90;5.70;;;;;;;;;;4996714;28;20037;-77
2021/08/11 00:14:17;;;;;;;8.95;4.43;;;;;;;;;;4999733;28;20044;-76
2021/08/11 00:16:46;;;;;;;12.85;9.25;;;;;;;;;;4986082;28;20060;-76
2021/08/11 00:19:14;;;;;;;7.47;3.58;;;;;;;;;;5006501;28;20099;-78
2021/08/11 00:21:43;;;;;;;8.98;3.90;;;;;;;;;;5001898;28;20053;-77
2021/08/11 00:24:11;;;;;;;7.45;2.55;;;;;;;;;;4993465;28;20442;-77
2021/08/11 00:26:40;;;;;;;7.22;2.33;;;;;;;;;;5019055;28;20081;-77
2021/08/11 00:29:08;;;;;;;6.43;2.05;;;;;;;;;;5018568;28;20052;-77
2021/08/11 00:31:36;;;;;;;7.50;4.05;;;;;;;;;;5014907;28;20046;-77
2021/08/11 00:34:08;;;;;;;6.18;3.28;;;;;;;;;;5008711;28;20045;-76
2021/08/11 00:36:38;;;;;;;4.53;3.30;;;;;;;;;;5010147;28;20408;-76
2021/08/11 00:39:12;;;;;;;3.80;2.15;;;;;;;;;;5009120;28;20069;-76
2021/08/11 00:41:46;;;;;;;7.43;3.92;;;;;;;;;;5009142;28;20033;-76
2021/08/11 00:44:16;;;;;;;7.50;2.90;;;;;;;;;;5010043;28;20045;-76
2021/08/11 00:46:45;;;;;;;4.43;2.80;;;;;;;;;;5003824;28;20124;-78
2021/08/11 00:49:17;;;;;;;5.18;2.50;;;;;;;;;;5009376;28;20038;-76
2021/08/11 00:51:47;;;;;;;6.97;2.80;;;;;;;;;;5013516;28;20050;-76
2021/08/11 00:54:17;;;;;;;4.93;2.40;;;;;;;;;;5011000;28;20037;-76
2021/08/11 00:56:49;;;;;;;5.57;2.63;;;;;;;;;;5010689;28;20119;-76
2021/08/11 00:59:20;;;;;;;8.35;2.50;;;;;;;;;;5011269;28;20115;-76
2021/08/11 01:01:51;;;;;;;8.10;2.60;;;;;;;;;;5012279;28;20041;-76
2021/08/11 01:04:20;;;;;;;5.60;2.45;;;;;;;;;;4973834;28;20055;-76
2021/08/11 01:06:49;;;;;;;5.60;2.60;;;;;;;;;;5013774;28;20128;-76
2021/08/11 01:09:18;;;;;;;5.85;3.17;;;;;;;;;;5021606;28;20041;-77
2021/08/11 01:11:49;;;;;;;5.05;2.60;;;;;;;;;;5001567;28;20519;-76
2021/08/11 01:14:17;;;;;;;5.50;2.55;;;;;;;;;;5010357;28;20046;-78
2021/08/11 01:16:45;;;;;;;5.85;2.58;;;;;;;;;;5026455;28;20061;-77
2021/08/11 01:19:13;;;;;;;5.50;2.13;;;;;;;;;;5008784;28;20034;-76
2021/08/11 01:21:45;;;;;;;;;;;;;;;;;;5010104;28;20057;-77
2021/08/11 01:24:31;;;;;;;5.47;1.50;;;;;;;;;;5011013;28;19932;-76
2021/08/11 01:27:23;;;;;;;6.90;1.77;;;;;;;;;;5016651;28;20049;-76
2021/08/11 01:30:07;;;;;;;6.63;2.10;;;;;;;;;;5002393;28;20070;-78
2021/08/11 01:32:53;;;;;;;9.55;2.40;;;;;;;;;;5009332;28;20061;-77
2021/08/11 01:35:26;;;;;;;4.00;1.60;;;;;;;;;;5017371;28;20136;-77
2021/08/11 01:37:58;;;;;;;11.20;3.15;;;;;;;;;;5003823;28;20045;-77
2021/08/11 01:40:30;;;;;;;8.93;1.85;;;;;;;;;;5002920;28;20491;-76
2021/08/11 01:43:01;;;;;;;9.73;3.17;;;;;;;;;;5004027;28;20522;-76
2021/08/11 01:45:34;;;;;;;5.50;1.85;;;;;;;;;;5003890;28;20052;-76
2021/08/11 01:48:16;;;;;;;7.00;2.10;;;;;;;;;;5018520;28;20041;-76
2021/08/11 01:50:46;;;;;;;7.53;1.98;;;;;;;;;;5015050;28;20050;-77
2021/08/11 01:53:21;;;;;;;5.97;1.88;;;;;;;;;;5009265;28;20056;-77
2021/08/11 01:55:55;;;;;;;4.90;1.60;;;;;;;;;;5010359;28;20052;-77
2021/08/11 01:58:24;;;;;;;9.02;2.28;;;;;;;;;;5005075;28;20052;-77
2021/08/11 02:00:57;;;;;;;7.30;2.10;;;;;;;;;;5000440;28;20064;-76
2021/08/11 02:03:26;;;;;;;7.03;1.85;;;;;;;;;;5012117;28;20041;-76
2021/08/11 02:05:55;;;;;;;6.85;1.80;;;;;;;;;;5012656;28;20111;-77
2021/08/11 02:08:24;;;;;;;6.35;1.67;;;;;;;;;;5012115;28;20048;-77
2021/08/11 02:10:56;;;;;;;7.65;1.98;;;;;;;;;;4998494;28;20070;-76
2021/08/11 02:13:23;;;;;;;8.27;2.38;;;;;;;;;;4993548;28;20053;-77
2021/08/11 02:15:52;;;;;;;6.53;1.95;;;;;;;;;;5013851;28;20061;-77
2021/08/11 02:18:19;;;;;;;6.30;1.40;;;;;;;;;;5007611;28;20479;-77
2021/08/11 02:20:49;;;;;;;5.53;1.65;;;;;;;;;;5034465;28;20093;-78
2021/08/11 02:23:18;;;;;;;6.85;1.83;;;;;;;;;;5012667;28;20581;-78
2021/08/11 02:26:09;;;;;;;5.35;1.55;;;;;;;;;;5009994;28;20042;-77
2021/08/11 02:29:02;;;;;;;6.05;1.48;;;;;;;;;;5010233;28;20052;-77
2021/08/11 02:31:49;;;;;;;5.55;1.65;;;;;;;;;;5013813;28;20091;-77
2021/08/11 02:34:27;;;;;;;5.13;1.48;;;;;;;;;;5033255;28;20095;-77
2021/08/11 02:37:00;;;;;;;8.90;1.42;;;;;;;;;;5014336;28;20045;-77
2021/08/11 02:39:43;;;;;;;5.82;2.10;;;;;;;;;;5014045;28;20034;-77
2021/08/11 02:42:18;;;;;;;4.22;2.17;;;;;;;;;;5014171;28;20038;-77
2021/08/11 02:44:48;;;;;;;;;;;;;;;;;;5017563;28;20124;-76
2021/08/11 02:47:15;;;;;;;6.38;2.15;;;;;;;;;;5015178;28;19918;-77
2021/08/11 02:49:44;;;;;;;4.65;1.30;;;;;;;;;;5012549;28;20038;-76
2021/08/11 02:52:13;;;;;;;4.75;2.15;;;;;;;;;;5016957;28;20049;-76
2021/08/11 02:54:42;;;;;;;;;;;;;;;;;;5015695;28;20046;-77
2021/08/11 02:57:12;;;;;;;6.72;1.92;;;;;;;;;;4998792;28;20023;-76
2021/08/11 02:59:41;;;;;;;5.65;2.13;;;;;;;;;;5014625;28;20111;-77
2021/08/11 03:02:08;;;;;;;6.70;1.50;;;;;;;;;;5015222;28;20045;-77
2021/08/11 03:04:36;;;;;;;3.72;1.75;;;;;;;;;;5014256;28;20072;-77
2021/08/11 03:07:03;;;;;;;10.38;2.00;;;;;;;;;;5014855;28;20144;-77
2021/08/11 03:09:31;;;;;;;8.68;1.60;;;;;;;;;;5004080;28;20087;-77
2021/08/11 03:12:00;;;;;;;7.93;2.38;;;;;;;;;;5011966;28;20045;-77
2021/08/11 03:14:28;;;;;;;;;;;;;;;;;;5017388;28;20483;-76
2021/08/11 03:16:56;;;;;;;7.40;2.42;;;;;;;;;;5012965;28;20339;-77
2021/08/11 03:19:23;;;;;;;8.70;2.33;;;;;;;;;;5016894;28;20045;-77
2021/08/11 03:21:51;;;;;;;7.32;2.03;;;;;;;;;;5013364;28;20063;-77
2021/08/11 03:24:24;;;;;;;10.32;2.53;;;;;;;;;;5013014;28;20057;-78
2021/08/11 03:26:51;;;;;;;5.72;1.38;;;;;;;;;;5007312;28;20038;-77
2021/08/11 03:29:18;;;;;;;4.50;1.48;;;;;;;;;;5016532;28;20038;-77
2021/08/11 03:31:47;;;;;;;6.90;1.52;;;;;;;;;;5014581;28;20115;-76
2021/08/11 03:34:14;;;;;;;6.97;1.20;;;;;;;;;;5006648;28;20060;-77
2021/08/11 03:36:42;;;;;;;2.70;1.00;;;;;;;;;;5019767;28;20042;-77
2021/08/11 03:39:09;;;;;;;4.80;1.45;;;;;;;;;;5012430;28;20045;-77
2021/08/11 03:41:37;;;;;;;5.75;1.10;;;;;;;;;;5015835;28;20042;-76
2021/08/11 03:44:09;;;;;;;6.05;1.33;;;;;;;;;;4988643;28;20049;-77
2021/08/11 03:46:36;;;;;;;6.88;1.33;;;;;;;;;;5012853;28;20041;-76
2021/08/11 03:49:03;;;;;;;9.07;1.45;;;;;;;;;;5017048;28;20479;-77
2021/08/11 03:51:31;;;;;;;7.68;1.63;;;;;;;;;;5018900;28;20458;-77
2021/08/11 03:53:58;;;;;;;8.13;1.30;;;;;;;;;;5017562;28;20045;-77
2021/08/11 03:56:26;;;;;;;4.70;0.98;;;;;;;;;;5013810;28;20052;-77
2021/08/11 03:58:53;;;;;;;6.25;1.10;;;;;;;;;;5015368;28;20428;-77
2021/08/11 04:01:20;;;;;;;4.97;1.48;;;;;;;;;;5012718;28;20495;-77
2021/08/11 04:03:48;;;;;;;3.53;1.20;;;;;;;;;;5005194;28;20518;-77
2021/08/11 04:06:18;;;;;;;4.35;1.10;;;;;;;;;;5003960;28;20401;-77
2021/08/11 04:08:45;;;;;;;8.13;1.55;;;;;;;;;;5003765;28;20042;-77
2021/08/11 04:11:12;;;;;;;8.80;1.35;;;;;;;;;;5023580;28;20468;-77
2021/08/11 04:13:40;;;;;;;6.47;1.60;;;;;;;;;;5006478;28;20034;-77
2021/08/11 04:16:07;;;;;;;6.10;1.10;;;;;;;;;;5024193;28;20091;-77
2021/08/11 04:18:34;;;;;;;6.75;1.50;;;;;;;;;;5025107;28;20041;-77
2021/08/11 04:21:01;;;;;;;4.68;1.25;;;;;;;;;;5021637;28;20060;-77
2021/08/11 04:23:29;;;;;;;4.90;1.08;;;;;;;;;;5025636;28;20080;-78
2021/08/11 04:25:56;;;;;;;7.40;1.63;;;;;;;;;;5017371;28;20053;-77
2021/08/11 04:28:25;;;;;;;7.50;1.23;;;;;;;;;;5026127;28;20132;-77
2021/08/11 04:30:53;;;;;;;5.03;1.30;;;;;;;;;;5023056;28;20099;-77
2021/08/11 04:33:20;;;;;;;4.88;1.48;;;;;;;;;;5005317;28;20103;-77
2021/08/11 04:35:47;;;;;;;6.50;2.15;;;;;;;;;;5024812;28;20057;-77
2021/08/11 04:38:16;;;;;;;9.98;2.25;;;;;;;;;;5016116;28;20057;-76
2021/08/11 04:40:45;;;;;;;8.32;2.45;;;;;;;;;;5030843;28;20059;-77
2021/08/11 04:43:12;;;;;;;8.15;2.38;;;;;;;;;;5024838;28;20045;-77
2021/08/11 04:45:43;;;;;;;7.72;1.67;;;;;;;;;;5022439;28;20037;-77
2021/08/11 04:48:11;;;;;;;7.53;2.10;;;;;;;;;;5024358;28;20041;-77
2021/08/11 04:50:38;;;;;;;5.40;1.70;;;;;;;;;;5038909;28;20056;-78
2021/08/11 04:53:05;;;;;;;6.30;1.73;;;;;;;;;;5016124;28;20041;-77
2021/08/11 04:55:33;;;;;;;3.65;1.50;;;;;;;;;;5030787;28;20046;-77
2021/08/11 04:58:01;;;;;;;7.30;1.73;;;;;;;;;;5038099;28;20504;-76
2021/08/11 05:00:28;;;;;;;5.85;1.55;;;;;;;;;;5022594;28;20041;-77
2021/08/11 05:02:55;;;;;;;8.10;1.73;;;;;;;;;;5023876;28;20095;-77
2021/08/11 05:05:26;;;;;;;6.45;2.05;;;;;;;;;;5013590;28;20037;-77
2021/08/11 05:07:54;;;;;;;4.55;1.65;;;;;;;;;;5024110;28;20049;-77
2021/08/11 05:10:21;;;;;;;;;;;;;;;;;;5038922;28;20049;-77
2021/08/11 05:12:49;;;;;;;7.50;1.45;;;;;;;;;;5024524;28;19916;-78
2021/08/11 05:15:16;;;;;;;12.35;1.95;;;;;;;;;;5021532;28;20399;-77
2021/08/11 05:17:43;;;;;;;10.93;1.55;;;;;;;;;;5021920;28;20503;-78
2021/08/11 05:20:13;;;;;;;8.88;1.58;;;;;;;;;;5024084;28;20124;-77
2021/08/11 05:22:40;;;;;;;7.60;1.48;;;;;;;;;;5014646;28;20045;-77
2021/08/11 05:25:08;;;;;;;5.70;1.50;;;;;;;;;;5021153;28;20041;-77
2021/08/11 05:27:36;;;;;;;;;;;;;;;;;;5022779;28;20520;-77
2021/08/11 05:30:05;;;;;;;7.10;1.50;;;;;;;;;;5022835;28;19971;-77
2021/08/11 05:32:32;;;;;;;4.80;1.20;;;;;;;;;;5029325;28;20049;-77
2021/08/11 05:35:00;;;;;;;4.85;1.02;;;;;;;;;;5038760;28;20537;-77
2021/08/11 05:37:27;;;;;;;6.78;1.42;;;;;;;;;;5023510;28;20033;-77
2021/08/11 05:39:56;;;;;;;9.13;1.45;;;;;;;;;;5013639;28;20061;-77
2021/08/11 05:42:23;;;;;;;7.00;1.40;;;;;;;;;;5012212;28;20129;-77
2021/08/11 05:44:50;;;;;;;5.82;1.60;;;;;;;;;;5021398;28;20045;-77
2021/08/11 05:47:18;;;;;;;8.35;1.52;;;;;;;;;;5022164;28;20378;-77
2021/08/11 05:49:46;;;;;;;4.32;1.40;;;;;;;;;;5005377;28;20114;-77
2021/08/11 05:52:13;;;;;;;8.27;1.77;;;;;;;;;;5021178;28;20033;-77
2021/08/11 05:54:42;;;;;;;6.28;1.73;;;;;;;;;;5022946;28;20133;-77
2021/08/11 05:57:09;;;;;;;7.28;1.92;;;;;;;;;;5020812;28;20054;-78
2021/08/11 05:59:37;;;;;;;10.52;1.63;;;;;;;;;;5021114;28;20037;-78
2021/08/11 06:02:05;;;;;;;6.10;1.65;;;;;;;;;;5020968;28;20513;-78
2021/08/11 06:04:32;;;;;;;6.70;1.60;;;;;;;;;;5021685;28;20037;-77
2021/08/11 06:07:00;;;;;;;10.77;1.70;;;;;;;;;;5023188;28;20424;-77
2021/08/11 06:09:27;;;;;;;10.82;1.85;;;;;;;;;;5023485;28;20048;-78
2021/08/11 06:11:54;;;;;;;6.88;1.65;;;;;;;;;;5027620;28;20041;-78
2021/08/11 06:14:22;;;;;;;11.45;1.50;;;;;;;;;;5025278;28;20045;-78
2021/08/11 06:16:49;;;;;;;8.93;1.30;;;;;;;;;;5023807;28;20061;-77
2021/08/11 06:19:16;;;;;;;8.05;1.67;;;;;;;;;;5018928;28;20133;-77
2021/08/11 06:21:44;;;;;;;7.60;1.20;;;;;;;;;;5021383;28;20080;-78
2021/08/11 06:24:11;;;;;;;10.40;1.45;;;;;;;;;;5027958;28;20069;-77
2021/08/11 06:26:40;;;;;;;7.00;1.50;;;;;;;;;;5032092;28;20087;-78
2021/08/11 06:29:09;;;;;;;8.48;1.42;;;;;;;;;;5025876;28;20049;-77
2021/08/11 06:31:36;;;;;;;8.35;1.20;;;;;;;;;;5034815;28;20056;-77
2021/08/11 06:34:03;;;;;;;8.70;1.50;;;;;;;;;;5031802;28;20088;-77
2021/08/11 06:36:30;;;;;;;9.60;1.48;;;;;;;;;;5027533;28;20124;-77
2021/08/11 06:38:58;;;;;;;4.40;1.00;;;;;;;;;;5000191;28;20041;-77
2021/08/11 06:41:25;;;;;;;5.50;1.45;;;;;;;;;;5037706;28;20124;-77
2021/08/11 06:43:52;;;;;;;8.35;1.88;;;;;;;;;;5017951;28;20048;-78
2021/08/11 06:46:20;;;;;;;8.48;1.08;;;;;;;;;;5027228;28;20045;-77
2021/08/11 06:48:47;;;;;;;13.45;2.13;;;;;;;;;;5026751;28;20045;-77
2021/08/11 06:51:14;;;;;;;8.75;1.58;;;;;;;;;;5027553;28;20091;-78
2021/08/11 06:53:41;;;;;;;6.40;1.65;;;;;;;;;;5026336;28;20124;-78
2021/08/11 06:56:09;;;;;;;8.93;1.75;;;;;;;;;;5019340;28;20048;-78
2021/08/11 06:58:36;;;;;;;9.38;1.40;;;;;;;;;;5026886;28;20045;-78
2021/08/11 07:01:04;;;;;;;7.57;1.48;;;;;;;;;;5027151;28;20049;-77
2021/08/11 07:03:31;;;;;;;7.43;1.63;;;;;;;;;;5025374;28;20045;-77
2021/08/11 07:05:59;;;;;;;9.68;2.13;;;;;;;;;;5025681;28;20034;-77
2021/08/11 07:08:28;;;;;;;;;;;;;;;;;;5029965;28;20034;-78
2021/08/11 07:10:55;;;;;;;6.15;1.60;;;;;;;;;;4999869;28;19917;-77
2021/08/11 07:13:23;;;;;;;9.40;1.33;;;;;;;;;;5004329;28;20070;-77
2021/08/11 07:15:50;;;;;;;10.23;1.67;;;;;;;;;;5026088;28;20128;-77
2021/08/11 07:18:19;;;;;;;9.80;1.50;;;;;;;;;;5024506;28;20038;-77
2021/08/11 07:20:47;;;;;;;5.18;1.45;;;;;;;;;;5024768;28;20053;-77
2021/08/11 07:23:14;;;;;;;7.40;1.55;;;;;;;;;;5029339;28;20053;-77
2021/08/11 07:25:42;;;;;;;7.18;1.38;;;;;;;;;;5022584;28;20484;-77
2021/08/11 07:28:10;;;;;;;8.55;1.50;;;;;;;;;;5011665;28;20053;-77
2021/08/11 07:30:37;;;;;;;;;;;;;;;;;;5027149;28;20049;-77
2021/08/11 07:33:09;;;;;;;13.52;2.35;;;;;;;;;;5024332;28;19929;-78
2021/08/11 07:35:38;;;;;;;6.65;1.42;;;;;;;;;;5023585;28;20091;-78
2021/08/11 07:38:07;;;;;;;10.05;1.08;;;;;;;;;;5024589;28;20065;-78
2021/08/11 07:40:36;;;;;;;6.85;1.30;;;;;;;;;;5023568;28;20041;-77
2021/08/11 07:43:04;;;;;;;;;;;;;;;;;;5041775;28;20087;-77
2021/08/11 07:45:32;;;;;;;9.27;2.03;;;;;;;;;;5023311;28;20391;-78
2021/08/11 07:48:00;;;;;;;8.85;1.23;;;;;;;;;;5016097;28;20124;-78
2021/08/11 07:50:29;;;;;;;8.65;1.40;;;;;;;;;;5024235;28;20050;-78
2021/08/11 07:52:57;;;;;;;8.07;1.10;;;;;;;;;;5024299;28;20415;-77
2021/08/11 07:55:25;;;;;;;7.25;1.48;;;;;;;;;;5024827;28;20053;-78
2021/08/11 07:57:53;;;;;;;7.82;1.50;;;;;;;;;;5025294;28;20062;-77
2021/08/11 08:00:22;;;;;;;8.75;1.63;;;;;;;;;;5023245;28;20192;-77
2021/08/11 08:02:52;;;;;;;;;;;;;;;;;;5023919;28;20442;-77
2021/08/11 08:05:20;;;;;;;10.48;1.15;;;;;;;;;;5025560;28;19925;-76
2021/08/11 08:07:48;;;;;;;7.30;1.40;;;;;;;;;;5025839;28;20046;-76
2021/08/11 08:10:16;;;;;;;10.13;1.40;;;;;;;;;;5013084;28;20045;-77
2021/08/11 08:12:43;;;;;;;9.63;1.75;;;;;;;;;;5021423;28;20402;-76
2021/08/11 08:15:13;;;;;;;12.65;1.30;;;;;;;;;;5031920;28;20052;-76
2021/08/11 08:17:41;;;;;;;6.65;1.20;;;;;;;;;;5023361;28;20440;-76
2021/08/11 08:20:09;;;;;;;12.63;2.15;;;;;;;;;;5022893;28;20124;-76
2021/08/11 08:22:37;;;;;;;9.15;1.30;;;;;;;;;;5025194;28;20179;-76
2021/08/11 08:25:05;;;;;;;9.90;1.42;;;;;;;;;;5025006;28;20045;-76
2021/08/11 08:27:32;;;;;;;9.57;1.83;;;;;;;;;;5024722;28;20049;-77
2021/08/11 08:29:59;;;;;;;4.85;1.65;;;;;;;;;;5024196;28;20049;-76
2021/08/11 08:32:29;;;;;;;7.63;1.60;;;;;;;;;;5023613;28;20049;-76
2021/08/11 08:34:57;;;;;;;8.90;1.77;;;;;;;;;;5024142;28;20561;-76
2021/08/11 08:37:29;;;;;;;6.45;1.90;;;;;;;;;;5023176;28;20056;-76
2021/08/11 08:39:57;;;;;;;7.68;1.48;;;;;;;;;;5024202;28;20045;-76
2021/08/11 08:42:25;;;;;;;8.73;1.42;;;;;;;;;;5023418;28;20053;-76
2021/08/11 08:44:52;;;;;;;8.15;1.77;;;;;;;;;;5022683;28;20056;-76
2021/08/11 08:47:21;;;;;;;16.08;2.28;;;;;;;;;;5023968;28;20045;-76
2021/08/11 08:49:49;;;;;;;11.20;2.17;;;;;;;;;;5022992;28;20040;-76
2021/08/11 08:52:21;;;;;;;6.63;1.95;;;;;;;;;;5024039;28;20041;-76
2021/08/11 08:54:49;;;;;;;8.68;2.35;;;;;;;;;;5021469;28;20046;-76
2021/08/11 08:57:20;;;;;;;7.45;2.28;;;;;;;;;;5024017;28;20092;-76
2021/08/11 08:59:47;;;;;;;13.00;2.30;;;;;;;;;;5022525;28;20045;-76
2021/08/11 09:02:15;;;;;;;9.27;2.72;;;;;;;;;;5024572;28;20052;-76
2021/08/11 09:04:43;;;;;;;5.88;1.65;;;;;;;;;;5015723;28;20479;-76
2021/08/11 09:07:15;;;;;;;6.47;1.20;;;;;;;;;;5036444;28;20038;-76
2021/08/11 09:09:43;;;;;;;7.15;1.30;;;;;;;;;;5023864;28;20408;-76
2021/08/11 09:12:28;;;;;;;7.35;1.13;;;;;;;;;;5022237;28;20037;-76
2021/08/11 09:14:57;;;;;;;11.77;2.00;;;;;;;;;;5022820;28;20118;-76
2021/08/11 09:17:37;;;;;;;11.27;1.75;;;;;;;;;;5030218;28;20120;-76
2021/08/11 09:20:09;;;;;;;6.97;1.55;;;;;;;;;;5022242;28;20415;-76
2021/08/11 09:22:53;;;;;;;7.60;1.40;;;;;;;;;;5005428;28;20069;-77
2021/08/11 09:25:22;;;;;;;9.48;1.67;;;;;;;;;;5023427;28;20049;-77
2021/08/11 09:27:50;;;;;;;5.95;1.40;;;;;;;;;;5004661;28;20041;-77
2021/08/11 09:30:20;;;;;;;5.60;1.50;;;;;;;;;;5023302;28;20080;-76
2021/08/11 09:32:55;;;;;;;10.32;1.90;;;;;;;;;;5019158;28;20053;-76
2021/08/11 09:35:29;;;;;;;5.15;1.17;;;;;;;;;;5022540;28;20100;-76
2021/08/11 09:37:59;;;;;;;6.80;1.40;;;;;;;;;;5023599;28;20060;-76
2021/08/11 09:40:30;;;;;;;7.63;1.77;;;;;;;;;;5028772;28;20124;-76
2021/08/11 09:43:25;;;;;;;10.27;1.33;;;;;;;;;;5021347;28;20103;-76
2021/08/11 09:45:57;;;;;;;7.00;1.40;;;;;;;;;;5022316;28;20057;-75
2021/08/11 09:48:39;;;;;;;8.20;1.58;;;;;;;;;;5021635;28;20044;-76
2021/08/11 09:51:07;;;;;;;10.43;1.58;;;;;;;;;;5018288;28;20144;-75
2021/08/11 09:53:38;;;;;;;8.77;3.00;;;;;;;;;;5030129;28;20132;-75
2021/08/11 09:56:14;;;;;;;8.75;2.22;;;;;;;;;;5022597;28;20045;-76
2021/08/11 09:58:47;;;;;;;7.35;2.28;;;;;;;;;;5032450;28;20054;-76
2021/08/11 10:01:18;;;;;;;7.05;2.00;;;;;;;;;;5002961;28;20049;-76
2021/08/11 10:04:01;;;;;;;12.48;4.15;;;;;;;;;;5000202;28;20049;-76
2021/08/11 10:06:34;;;;;;;8.52;2.25;;;;;;;;;;5001766;28;20042;-75
2021/08/11 10:09:14;;;;;;;7.50;1.60;;;;;;;;;;5003226;28;20038;-76
2021/08/11 10:11:50;;;;;;;8.27;2.35;;;;;;;;;;5003514;28;20056;-76
2021/08/11 10:14:23;;;;;;;8.07;1.88;;;;;;;;;;5003289;28;20128;-75
2021/08/11 10:16:52;;;;;;;9.98;1.70;;;;;;;;;;5003092;28;20171;-77
2021/08/11 10:19:32;;;;;;;7.85;1.80;;;;;;;;;;5001350;28;20049;-76
2021/08/11 10:22:02;;;;;;;6.93;1.88;;;;;;;;;;5003404;28;20042;-76
2021/08/11 10:24:31;;;;;;;10.10;2.65;;;;;;;;;;5002995;28;20107;-76
2021/08/11 10:26:58;;;;;;;10.98;2.10;;;;;;;;;;5003048;28;20120;-76
2021/08/11 10:29:26;;;;;;;7.40;3.55;;;;;;;;;;5003660;28;20046;-76
2021/08/11 10:31:54;;;;;;;9.63;3.60;;;;;;;;;;5017786;28;20072;-76
2021/08/11 10:34:24;;;;;;;11.02;3.42;;;;;;;;;;5002805;28;20185;-76
2021/08/11 10:36:50;;;;;;;;;;;;;;;;;;5003397;28;20056;-77
2021/08/11 10:39:19;;;;;;;11.55;3.90;;;;;;;;;;5003414;28;19918;-76
2021/08/11 10:41:49;;;;;;;10.73;3.42;;;;;;;;;;5003238;28;20039;-76
2021/08/11 10:44:19;;;;;;;7.80;2.90;;;;;;;;;;5002867;28;20479;-75
2021/08/11 10:46:54;;;;;;;9.90;3.42;;;;;;;;;;5003051;28;20068;-76
2021/08/11 10:49:24;;;;;;;11.43;3.60;;;;;;;;;;5001386;28;20046;-75
2021/08/11 10:51:54;;;;;;;12.10;3.80;;;;;;;;;;5002816;28;20077;-76
2021/08/11 10:54:22;;;;;;;14.30;3.60;;;;;;;;;;5017144;28;20046;-76
2021/08/11 10:56:51;;;;;;;11.32;3.38;;;;;;;;;;5035435;28;20564;-78
2021/08/11 10:59:26;;;;;;;9.07;3.45;;;;;;;;;;5005257;28;20038;-76
2021/08/11 11:01:54;;;;;;;11.15;3.60;;;;;;;;;;5006400;28;20046;-76
2021/08/11 11:04:41;;;;;;;5.70;3.05;;;;;;;;;;5004622;28;20068;-77
2021/08/11 11:07:11;;;;;;;10.63;3.20;;;;;;;;;;5004546;28;20045;-76
2021/08/11 11:09:40;;;;;;;12.30;4.63;;;;;;;;;;5006307;28;20143;-76
2021/08/11 11:12:17;;;;;;;11.18;3.17;;;;;;;;;;5006132;28;20108;-76
2021/08/11 11:15:00;;;;;;;11.05;2.97;;;;;;;;;;5006096;28;20069;-76
2021/08/11 11:17:29;;;;;;;14.18;3.35;;;;;;;;;;5006192;28;20041;-76
2021/08/11 11:20:08;;;;;;;17.00;2.95;;;;;;;;;;5006264;28;20053;-76
2021/08/11 11:22:58;;;;;;;10.15;2.33;;;;;;;;;;5020857;28;20046;-75
2021/08/11 11:25:58;;;;;;;6.78;2.13;;;;;;;;;;5004715;28;20108;-76
2021/08/11 11:28:54;;;;;;;11.38;2.63;;;;;;;;;;5000253;28;20046;-76
2021/08/11 11:31:47;;;;;;;8.05;1.50;;;;;;;;;;5006005;28;20053;-76
2021/08/11 11:34:29;;;;;;;9.13;1.33;;;;;;;;;;5005250;28;20046;-77
2021/08/11 11:37:00;;;;;;;13.80;1.63;;;;;;;;;;5004659;28;20054;-76
2021/08/11 11:39:29;;;;;;;9.02;2.03;;;;;;;;;;5006189;28;20463;-77
2021/08/11 11:44:46;;;;;;;9.02;1.70;;;;;;;;;;5006024;28;20046;-76
2021/08/11 11:47:15;;;;;;;7.88;1.65;;;;;;;;;;5006146;28;20044;-76
2021/08/11 11:49:43;;;;;;;6.82;1.45;;;;;;;;;;5005817;28;20046;-77
2021/08/11 11:52:16;;;;;;;8.75;1.30;;;;;;;;;;5006340;28;20046;-77
2021/08/11 11:54:50;;;;;;;13.70;1.77;;;;;;;;;;5003985;28;20049;-77
2021/08/11 11:57:17;;;;;;;13.63;2.95;;;;;;;;;;5006100;28;20046;-77
2021/08/11 11:59:49;;;;;;;10.10;2.50;;;;;;;;;;5005846;28;20480;-77
2021/08/11 12:02:21;;;;;;;14.38;3.10;;;;;;;;;;5003908;28;20038;-78
2021/08/11 12:05:04;;;;;;;7.30;1.75;;;;;;;;;;5005585;28;20041;-77
2021/08/11 12:07:35;;;;;;;5.07;1.50;;;;;;;;;;5005368;28;20052;-78
2021/08/11 12:10:04;;;;;;;7.03;1.38;;;;;;;;;;5005843;28;20421;-78
2021/08/11 12:12:31;;;;;;;9.82;2.25;;;;;;;;;;5003509;28;20038;-78
2021/08/11 12:15:18;;;;;;;5.45;1.85;;;;;;;;;;5004479;28;20037;-78
2021/08/11 12:17:46;;;;;;;5.95;1.55;;;;;;;;;;5003991;28;20125;-78
2021/08/11 12:20:29;;;;;;;3.67;1.20;;;;;;;;;;5005601;28;20103;-78
2021/08/11 12:22:58;;;;;;;6.53;1.50;;;;;;;;;;5036842;28;20128;-77
2021/08/11 12:25:28;;;;;;;5.30;1.45;;;;;;;;;;5005402;28;20404;-78
2021/08/11 12:28:15;;;;;;;7.15;1.67;;;;;;;;;;5005338;28;20496;-78
2021/08/11 12:30:50;;;;;;;10.82;2.55;;;;;;;;;;5005503;28;20045;-78
2021/08/11 12:33:20;;;;;;;9.73;2.47;;;;;;;;;;5005189;28;20050;-78
2021/08/11 12:35:47;;;;;;;6.70;1.48;;;;;;;;;;5005279;28;20066;-78
2021/08/11 12:38:33;;;;;;;11.02;4.50;;;;;;;;;;5005000;28;20064;-78
2021/08/11 12:41:21;;;;;;;16.33;5.47;;;;;;;;;;5005960;28;20242;-78
2021/08/11 12:43:52;;;;;;;22.75;11.48;;;;;;;;;;5035396;28;20091;-78
2021/08/11 12:46:44;;;;;;;31.13;16.15;;;;;;;;;;5022891;28;20072;-78
2021/08/11 12:49:25;;;;;;;16.92;5.53;;;;;;;;;;5017217;28;20049;-77
2021/08/11 12:52:09;;;;;;;15.93;5.32;;;;;;;;;;5023360;28;20095;-78
2021/08/11 12:55:00;;;;;;;28.20;12.13;;;;;;;;;;5021723;28;20049;-78
2021/08/11 12:57:47;;;;;;;3.50;1.35;;;;;;;;;;5002818;28;20041;-78
2021/08/11 13:00:19;;;;;;;7.65;1.45;;;;;;;;;;5003447;28;20046;-78
2021/08/11 13:02:47;;;;;;;14.82;5.97;;;;;;;;;;4986387;28;20061;-78
2021/08/11 13:05:19;;;;;;;8.98;2.83;;;;;;;;;;5002905;28;20045;-78
2021/08/11 13:08:06;;;;;;;15.68;6.00;;;;;;;;;;5004704;28;20049;-78
2021/08/11 13:10:36;;;;;;;15.57;5.00;;;;;;;;;;5002774;28;20537;-78
2021/08/11 13:13:26;;;;;;;18.02;7.70;;;;;;;;;;5004564;28;20412;-78
2021/08/11 13:16:14;;;;;;;7.05;1.70;;;;;;;;;;5004625;28;20038;-78
2021/08/11 13:18:43;;;;;;;8.73;1.63;;;;;;;;;;5004183;28;20046;-78
2021/08/11 13:21:11;;;;;;;8.02;1.80;;;;;;;;;;5018826;28;20044;-78
2021/08/11 13:23:40;;;;;;;8.30;1.60;;;;;;;;;;5004843;28;20050;-78
2021/08/11 13:26:08;;;;;;;10.18;1.60;;;;;;;;;;5002558;28;20042;-78
2021/08/11 13:28:40;;;;;;;4.60;1.60;;;;;;;;;;5003897;28;20439;-78
2021/08/11 13:31:08;;;;;;;5.93;1.80;;;;;;;;;;5002617;28;20496;-78
2021/08/11 13:33:36;;;;;;;5.20;1.35;;;;;;;;;;5002828;28;20049;-78
2021/08/11 13:36:03;;;;;;;5.15;1.52;;;;;;;;;;5004480;28;20046;-78
2021/08/11 13:38:31;;;;;;;8.60;1.92;;;;;;;;;;5004181;28;20155;-78
2021/08/11 13:40:58;;;;;;;8.15;1.85;;;;;;;;;;5004478;28;20034;-78
2021/08/11 13:43:28;;;;;;;7.10;1.60;;;;;;;;;;5002447;28;20088;-78
2021/08/11 13:45:57;;;;;;;4.95;1.58;;;;;;;;;;5003917;28;20380;-78
2021/08/11 13:48:25;;;;;;;6.38;2.10;;;;;;;;;;5003847;28;20115;-78
2021/08/11 13:50:52;;;;;;;6.22;1.30;;;;;;;;;;5004314;28;20030;-78
2021/08/11 13:53:19;;;;;;;5.22;1.40;;;;;;;;;;4983596;28;20054;-78
2021/08/11 13:55:46;;;;;;;6.43;1.23;;;;;;;;;;5001434;28;20050;-78
2021/08/11 13:58:14;;;;;;;5.50;1.80;;;;;;;;;;5020433;28;20416;-78
2021/08/11 14:00:41;;;;;;;5.15;1.30;;;;;;;;;;5021660;28;20049;-78
2021/08/11 14:03:11;;;;;;;4.75;1.40;;;;;;;;;;5021498;28;20037;-78
2021/08/11 14:05:41;;;;;;;7.03;2.58;;;;;;;;;;5020241;28;20407;-78
2021/08/11 14:08:08;;;;;;;11.10;2.55;;;;;;;;;;5036407;28;20045;-78
2021/08/11 14:10:38;;;;;;;6.55;2.30;;;;;;;;;;5019673;28;20046;-78
2021/08/11 14:13:05;;;;;;;15.93;4.50;;;;;;;;;;5016888;28;20053;-78
2021/08/11 14:15:33;;;;;;;7.53;1.85;;;;;;;;;;5018868;28;20053;-78
2021/08/11 14:18:01;;;;;;;8.35;1.85;;;;;;;;;;5021471;28;20045;-78
2021/08/11 14:20:28;;;;;;;5.80;1.67;;;;;;;;;;5013656;28;20045;-78
2021/08/11 14:22:59;;;;;;;5.07;1.77;;;;;;;;;;4997596;28;20045;-78
2021/08/11 14:25:31;;;;;;;5.60;2.17;;;;;;;;;;5015739;28;20103;-78
2021/08/11 14:27:58;;;;;;;12.55;3.67;;;;;;;;;;4967292;28;20038;-77
2021/08/11 14:30:26;;;;;;;7.88;1.42;;;;;;;;;;4972457;28;20535;-78
2021/08/11 14:32:53;;;;;;;7.45;1.70;;;;;;;;;;5013152;28;20045;-78
2021/08/11 14:35:21;;;;;;;7.65;2.05;;;;;;;;;;5006444;28;20124;-77
2021/08/11 14:37:48;;;;;;;7.10;1.90;;;;;;;;;;5018429;28;20144;-76
2021/08/11 14:40:16;;;;;;;6.55;1.27;;;;;;;;;;5018369;28;20053;-77
2021/08/11 14:42:43;;;;;;;6.65;1.48;;;;;;;;;;5018569;28;20045;-76
2021/08/11 14:45:11;;;;;;;6.43;1.63;;;;;;;;;;5015757;28;20034;-76
2021/08/11 14:47:39;;;;;;;7.60;2.50;;;;;;;;;;4999457;28;20045;-76
2021/08/11 14:50:07;;;;;;;6.70;2.00;;;;;;;;;;5013131;28;20049;-77
2021/08/11 14:52:38;;;;;;;9.40;2.30;;;;;;;;;;4984930;28;20033;-77
2021/08/11 14:55:06;;;;;;;7.97;2.25;;;;;;;;;;5033304;28;20498;-77
2021/08/11 14:57:34;;;;;;;6.60;2.03;;;;;;;;;;5012117;28;20045;-76
2021/08/11 15:00:01;;;;;;;11.10;2.42;;;;;;;;;;5011852;28;20053;-76
2021/08/11 15:02:28;;;;;;;13.27;2.80;;;;;;;;;;5015551;28;20126;-77
2021/08/11 15:04:58;;;;;;;7.88;2.47;;;;;;;;;;5010350;28;20148;-76
2021/08/11 15:07:26;;;;;;;8.95;2.90;;;;;;;;;;5016509;28;20115;-75